sensor_id;sensor_type;location;lat;lon;timestamp;pressure;altitude;pressure_sealevel;temperature;humidity
33155;BME280;19511;42.682;23.332;2023-02-28T00:01:34;95614.88;;;6.18;100.00
33155;BME280;19511;42.682;23.332;2023-02-28T00:04:00;95535.94;;;5.62;100.00
33155;BME280;19511;42.682;23.332;2023-02-28T00:06:26;95627.34;;;6.12;100.00
33155;BME280;19511;42.682;23.332;2023-02-28T00:08:51;95612.34;;;6.06;100.00
33155;BME280;19511;42.682;23.332;2023-02-28T00:11:20;95518.31;;;5.63;100.00
33155;BME280;19511;42.682;23.332;2023-02-28T00:13:50;95626.06;;;6.33;100.00
33155;BME280;19511;42.682;23.332;2023-02-28T00:16:19;95609.69;;;6.40;100.00
33155;BME280;19511;42.682;23.332;2023-02-28T00:18:45;95650.53;;;6.42;100.00
33155;BME280;19511;42.682;23.332;2023-02-28T00:21:19;95604.31;;;5.97;100.00
33155;BME280;19511;42.682;23.332;2023-02-28T00:23:54;95648.97;;;6.44;100.00
33155;BME280;19511;42.682;23.332;2023-02-28T00:26:20;95645.34;;;6.36;100.00
33155;BME280;19511;42.682;23.332;2023-02-28T00:28:48;95653.00;;;6.50;100.00
33155;BME280;19511;42.682;23.332;2023-02-28T00:31:17;95660.09;;;6.51;100.00
33155;BME280;19511;42.682;23.332;2023-02-28T00:33:43;95554.38;;;5.88;100.00
33155;BME280;19511;42.682;23.332;2023-02-28T00:36:10;95599.50;;;6.14;100.00
33155;BME280;19511;42.682;23.332;2023-02-28T00:38:37;95651.56;;;6.33;100.00
33155;BME280;19511;42.682;23.332;2023-02-28T00:41:03;95654.00;;;6.38;100.00
33155;BME280;19511;42.682;23.332;2023-02-28T00:43:30;95656.72;;;6.35;100.00
33155;BME280;19511;42.682;23.332;2023-02-28T00:45:57;95642.66;;;6.40;100.00
33155;BME280;19511;42.682;23.332;2023-02-28T00:48:29;95634.81;;;6.42;100.00
33155;BME280;19511;42.682;23.332;2023-02-28T00:51:02;95637.81;;;6.30;100.00
33155;BME280;19511;42.682;23.332;2023-02-28T00:53:28;95632.06;;;6.15;100.00
33155;BME280;19511;42.682;23.332;2023-02-28T00:55:58;95632.06;;;6.15;100.00
33155;BME280;19511;42.682;23.332;2023-02-28T00:58:23;95628.50;;;6.11;100.00
33155;BME280;19511;42.682;23.332;2023-02-28T01:00:50;95634.69;;;6.04;100.00
33155;BME280;19511;42.682;23.332;2023-02-28T01:03:16;95469.25;;;4.84;100.00
33155;BME280;19511;42.682;23.332;2023-02-28T01:05:44;95633.03;;;5.77;100.00
33155;BME280;19511;42.682;23.332;2023-02-28T01:08:09;95654.31;;;5.83;100.00
33155;BME280;19511;42.682;23.332;2023-02-28T01:10:35;95638.63;;;5.84;100.00
33155;BME280;19511;42.682;23.332;2023-02-28T01:13:02;95653.03;;;5.77;100.00
33155;BME280;19511;42.682;23.332;2023-02-28T01:18:08;95635.72;;;5.73;100.00
33155;BME280;19511;42.682;23.332;2023-02-28T01:20:36;95627.47;;;5.73;100.00
33155;BME280;19511;42.682;23.332;2023-02-28T01:23:02;95623.44;;;5.67;100.00
33155;BME280;19511;42.682;23.332;2023-02-28T01:25:29;95622.81;;;5.77;100.00
33155;BME280;19511;42.682;23.332;2023-02-28T01:27:58;95632.94;;;5.96;100.00
33155;BME280;19511;42.682;23.332;2023-02-28T01:30:28;95637.41;;;5.81;100.00
33155;BME280;19511;42.682;23.332;2023-02-28T01:32:56;95629.47;;;5.76;100.00
33155;BME280;19511;42.682;23.332;2023-02-28T01:35:22;95543.66;;;5.06;100.00
33155;BME280;19511;42.682;23.332;2023-02-28T01:37:47;95579.44;;;5.36;100.00
33155;BME280;19511;42.682;23.332;2023-02-28T01:40:13;95534.44;;;4.95;100.00
33155;BME280;19511;42.682;23.332;2023-02-28T01:42:38;95620.03;;;5.50;100.00
33155;BME280;19511;42.682;23.332;2023-02-28T01:47:41;95628.56;;;5.45;100.00
33155;BME280;19511;42.682;23.332;2023-02-28T01:50:14;95649.38;;;5.46;100.00
33155;BME280;19511;42.682;23.332;2023-02-28T01:52:41;95635.81;;;5.34;100.00
33155;BME280;19511;42.682;23.332;2023-02-28T01:55:10;95644.00;;;5.53;100.00
33155;BME280;19511;42.682;23.332;2023-02-28T01:57:48;95638.09;;;5.51;100.00
33155;BME280;19511;42.682;23.332;2023-02-28T02:00:20;95629.84;;;5.28;100.00
33155;BME280;19511;42.682;23.332;2023-02-28T02:02:51;95649.06;;;5.51;100.00
33155;BME280;19511;42.682;23.332;2023-02-28T02:05:23;95639.72;;;5.33;100.00
33155;BME280;19511;42.682;23.332;2023-02-28T02:07:55;95643.31;;;5.37;100.00
33155;BME280;19511;42.682;23.332;2023-02-28T02:10:31;95643.13;;;5.49;100.00
33155;BME280;19511;42.682;23.332;2023-02-28T02:18:48;95633.75;;;5.50;100.00
33155;BME280;19511;42.682;23.332;2023-02-28T02:36:59;95639.31;;;5.54;100.00
33155;BME280;19511;42.682;23.332;2023-02-28T02:39:53;95624.38;;;5.51;100.00
33155;BME280;19511;42.682;23.332;2023-02-28T02:43:00;95620.47;;;5.52;100.00
33155;BME280;19511;42.682;23.332;2023-02-28T02:48:01;95644.97;;;5.65;100.00
33155;BME280;19511;42.682;23.332;2023-02-28T02:50:35;95655.47;;;5.59;100.00
33155;BME280;19511;42.682;23.332;2023-02-28T02:53:03;95638.69;;;5.64;100.00
33155;BME280;19511;42.682;23.332;2023-02-28T02:55:33;95640.16;;;5.58;100.00
33155;BME280;19511;42.682;23.332;2023-02-28T02:58:07;95545.31;;;4.91;100.00
33155;BME280;19511;42.682;23.332;2023-02-28T03:00:38;95633.00;;;5.53;100.00
33155;BME280;19511;42.682;23.332;2023-02-28T03:03:08;95636.31;;;5.63;100.00
33155;BME280;19511;42.682;23.332;2023-02-28T03:05:41;95659.50;;;5.65;100.00
33155;BME280;19511;42.682;23.332;2023-02-28T03:08:12;95674.31;;;5.61;100.00
33155;BME280;19511;42.682;23.332;2023-02-28T03:10:40;95571.31;;;4.78;100.00
33155;BME280;19511;42.682;23.332;2023-02-28T03:13:36;95682.97;;;5.63;100.00
33155;BME280;19511;42.682;23.332;2023-02-28T03:30:17;95696.41;;;5.68;100.00
33155;BME280;19511;42.682;23.332;2023-02-28T03:33:14;95688.16;;;5.45;100.00
33155;BME280;19511;42.682;23.332;2023-02-28T03:36:16;95649.19;;;5.16;100.00
33155;BME280;19511;42.682;23.332;2023-02-28T03:39:17;95645.03;;;5.02;100.00
33155;BME280;19511;42.682;23.332;2023-02-28T03:41:52;95646.59;;;5.03;100.00
33155;BME280;19511;42.682;23.332;2023-02-28T03:44:27;95613.38;;;4.85;100.00
33155;BME280;19511;42.682;23.332;2023-02-28T03:47:02;95591.94;;;4.91;100.00
33155;BME280;19511;42.682;23.332;2023-02-28T03:49:57;95705.78;;;5.67;100.00
33155;BME280;19511;42.682;23.332;2023-02-28T03:52:35;95595.41;;;4.88;100.00
33155;BME280;19511;42.682;23.332;2023-02-28T03:55:07;95626.97;;;5.01;100.00
33155;BME280;19511;42.682;23.332;2023-02-28T03:57:53;95714.56;;;5.76;100.00
33155;BME280;19511;42.682;23.332;2023-02-28T04:00:46;95694.75;;;5.63;100.00
33155;BME280;19511;42.682;23.332;2023-02-28T04:03:19;95705.13;;;5.73;100.00
33155;BME280;19511;42.682;23.332;2023-02-28T04:05:51;95695.28;;;5.49;100.00
33155;BME280;19511;42.682;23.332;2023-02-28T04:08:17;95606.28;;;4.84;100.00
33155;BME280;19511;42.682;23.332;2023-02-28T04:10:58;95699.38;;;5.59;100.00
33155;BME280;19511;42.682;23.332;2023-02-28T04:13:26;95715.97;;;5.66;100.00
33155;BME280;19511;42.682;23.332;2023-02-28T04:15:52;95691.69;;;5.45;100.00
33155;BME280;19511;42.682;23.332;2023-02-28T04:18:17;95701.75;;;5.61;100.00
33155;BME280;19511;42.682;23.332;2023-02-28T04:20:42;95702.59;;;5.65;100.00
33155;BME280;19511;42.682;23.332;2023-02-28T04:23:08;95692.97;;;5.51;100.00
33155;BME280;19511;42.682;23.332;2023-02-28T04:25:40;95620.72;;;5.01;100.00
33155;BME280;19511;42.682;23.332;2023-02-28T04:28:13;95712.53;;;5.50;100.00
33155;BME280;19511;42.682;23.332;2023-02-28T04:30:40;95701.28;;;5.55;100.00
33155;BME280;19511;42.682;23.332;2023-02-28T04:33:12;95710.66;;;5.54;100.00
33155;BME280;19511;42.682;23.332;2023-02-28T04:35:37;95703.34;;;5.42;100.00
33155;BME280;19511;42.682;23.332;2023-02-28T04:38:03;95629.41;;;5.06;100.00
33155;BME280;19511;42.682;23.332;2023-02-28T04:40:29;95686.41;;;5.36;100.00
33155;BME280;19511;42.682;23.332;2023-02-28T04:42:54;95715.63;;;5.48;100.00
33155;BME280;19511;42.682;23.332;2023-02-28T04:45:20;95717.03;;;5.38;100.00
33155;BME280;19511;42.682;23.332;2023-02-28T04:47:48;95725.03;;;5.28;100.00
33155;BME280;19511;42.682;23.332;2023-02-28T04:50:17;95736.47;;;5.30;100.00
33155;BME280;19511;42.682;23.332;2023-02-28T04:52:44;95707.56;;;5.16;100.00
33155;BME280;19511;42.682;23.332;2023-02-28T04:55:12;95686.78;;;5.15;100.00
33155;BME280;19511;42.682;23.332;2023-02-28T04:57:41;95651.75;;;4.85;100.00
33155;BME280;19511;42.682;23.332;2023-02-28T05:00:09;95748.66;;;5.32;100.00
33155;BME280;19511;42.682;23.332;2023-02-28T05:02:37;95667.16;;;4.74;100.00
33155;BME280;19511;42.682;23.332;2023-02-28T05:05:04;95733.00;;;5.13;100.00
33155;BME280;19511;42.682;23.332;2023-02-28T05:07:33;95723.47;;;5.07;100.00
33155;BME280;19511;42.682;23.332;2023-02-28T05:10:00;95711.56;;;4.99;100.00
33155;BME280;19511;42.682;23.332;2023-02-28T05:12:26;95732.25;;;5.16;100.00
33155;BME280;19511;42.682;23.332;2023-02-28T05:14:54;95740.63;;;5.23;100.00
33155;BME280;19511;42.682;23.332;2023-02-28T05:17:19;95750.00;;;5.22;100.00
33155;BME280;19511;42.682;23.332;2023-02-28T05:19:47;95659.66;;;4.51;100.00
33155;BME280;19511;42.682;23.332;2023-02-28T05:22:15;95735.72;;;5.13;100.00
33155;BME280;19511;42.682;23.332;2023-02-28T05:24:42;95744.81;;;5.17;100.00
33155;BME280;19511;42.682;23.332;2023-02-28T05:27:15;95756.16;;;5.16;100.00
33155;BME280;19511;42.682;23.332;2023-02-28T05:29:41;95656.78;;;4.64;100.00
33155;BME280;19511;42.682;23.332;2023-02-28T05:32:15;95749.84;;;5.15;100.00
33155;BME280;19511;42.682;23.332;2023-02-28T05:34:44;95734.44;;;5.07;100.00
33155;BME280;19511;42.682;23.332;2023-02-28T05:37:12;95760.69;;;5.28;100.00
33155;BME280;19511;42.682;23.332;2023-02-28T05:39:38;95773.56;;;5.23;100.00
33155;BME280;19511;42.682;23.332;2023-02-28T05:42:05;95768.34;;;5.38;100.00
33155;BME280;19511;42.682;23.332;2023-02-28T05:44:35;95761.72;;;5.39;100.00
33155;BME280;19511;42.682;23.332;2023-02-28T05:47:06;95771.16;;;5.42;100.00
33155;BME280;19511;42.682;23.332;2023-02-28T05:49:32;95693.16;;;5.00;100.00
33155;BME280;19511;42.682;23.332;2023-02-28T05:51:58;95747.63;;;5.40;100.00
33155;BME280;19511;42.682;23.332;2023-02-28T05:54:24;95783.59;;;5.55;100.00
33155;BME280;19511;42.682;23.332;2023-02-28T05:56:49;95702.19;;;5.00;100.00
33155;BME280;19511;42.682;23.332;2023-02-28T05:59:15;95777.75;;;5.56;100.00
33155;BME280;19511;42.682;23.332;2023-02-28T06:01:42;95709.72;;;5.27;100.00
33155;BME280;19511;42.682;23.332;2023-02-28T06:04:13;95792.75;;;5.63;100.00
33155;BME280;19511;42.682;23.332;2023-02-28T06:06:46;95726.69;;;5.13;100.00
33155;BME280;19511;42.682;23.332;2023-02-28T06:09:12;95772.31;;;5.60;100.00
33155;BME280;19511;42.682;23.332;2023-02-28T06:11:37;95706.28;;;5.10;100.00
33155;BME280;19511;42.682;23.332;2023-02-28T06:14:03;95679.97;;;5.05;100.00
33155;BME280;19511;42.682;23.332;2023-02-28T06:16:31;95764.94;;;5.64;100.00
33155;BME280;19511;42.682;23.332;2023-02-28T06:18:57;95774.09;;;5.72;100.00
33155;BME280;19511;42.682;23.332;2023-02-28T06:21:24;95779.66;;;5.76;100.00
33155;BME280;19511;42.682;23.332;2023-02-28T06:23:58;95770.28;;;5.77;100.00
33155;BME280;19511;42.682;23.332;2023-02-28T06:26:27;95775.69;;;5.73;100.00
33155;BME280;19511;42.682;23.332;2023-02-28T06:28:53;95776.69;;;5.84;100.00
33155;BME280;19511;42.682;23.332;2023-02-28T06:31:22;95758.84;;;5.75;100.00
33155;BME280;19511;42.682;23.332;2023-02-28T06:33:49;95684.94;;;5.19;100.00
33155;BME280;19511;42.682;23.332;2023-02-28T06:36:15;95784.41;;;5.79;100.00
33155;BME280;19511;42.682;23.332;2023-02-28T06:38:43;95792.75;;;5.63;100.00
33155;BME280;19511;42.682;23.332;2023-02-28T06:41:14;95733.25;;;5.28;100.00
33155;BME280;19511;42.682;23.332;2023-02-28T06:43:42;95793.91;;;5.62;100.00
33155;BME280;19511;42.682;23.332;2023-02-28T06:46:10;95803.94;;;5.73;100.00
33155;BME280;19511;42.682;23.332;2023-02-28T06:48:47;95799.81;;;5.83;100.00
33155;BME280;19511;42.682;23.332;2023-02-28T06:51:16;95788.28;;;5.74;100.00
33155;BME280;19511;42.682;23.332;2023-02-28T06:53:43;95789.50;;;5.57;100.00
33155;BME280;19511;42.682;23.332;2023-02-28T06:56:17;95792.69;;;5.59;100.00
33155;BME280;19511;42.682;23.332;2023-02-28T06:58:52;95796.06;;;5.72;100.00
33155;BME280;19511;42.682;23.332;2023-02-28T07:01:18;95802.06;;;5.78;100.00
33155;BME280;19511;42.682;23.332;2023-02-28T07:03:57;95801.81;;;5.86;100.00
33155;BME280;19511;42.682;23.332;2023-02-28T07:06:23;95798.72;;;5.88;100.00
33155;BME280;19511;42.682;23.332;2023-02-28T07:08:50;95808.34;;;5.78;100.00
33155;BME280;19511;42.682;23.332;2023-02-28T07:11:18;95801.19;;;5.73;100.00
33155;BME280;19511;42.682;23.332;2023-02-28T07:13:47;95800.81;;;5.75;100.00
33155;BME280;19511;42.682;23.332;2023-02-28T07:16:19;95792.66;;;5.79;100.00
33155;BME280;19511;42.682;23.332;2023-02-28T07:18:55;95699.88;;;5.22;100.00
33155;BME280;19511;42.682;23.332;2023-02-28T07:21:37;95799.59;;;5.92;100.00
33155;BME280;19511;42.682;23.332;2023-02-28T07:24:02;95792.56;;;5.95;100.00
33155;BME280;19511;42.682;23.332;2023-02-28T07:26:28;95698.53;;;5.35;100.00
33155;BME280;19511;42.682;23.332;2023-02-28T07:28:57;95792.19;;;5.96;100.00
33155;BME280;19511;42.682;23.332;2023-02-28T07:31:26;95803.72;;;6.02;100.00
33155;BME280;19511;42.682;23.332;2023-02-28T07:33:54;95807.63;;;6.01;100.00
33155;BME280;19511;42.682;23.332;2023-02-28T07:36:21;95803.06;;;6.09;100.00
33155;BME280;19511;42.682;23.332;2023-02-28T07:38:47;95803.44;;;6.30;100.00
33155;BME280;19511;42.682;23.332;2023-02-28T07:41:17;95802.44;;;6.42;100.00
33155;BME280;19511;42.682;23.332;2023-02-28T07:43:47;95795.88;;;6.24;100.00
33155;BME280;19511;42.682;23.332;2023-02-28T07:46:23;95799.22;;;6.36;100.00
33155;BME280;19511;42.682;23.332;2023-02-28T07:49:01;95782.97;;;6.28;100.00
33155;BME280;19511;42.682;23.332;2023-02-28T07:51:41;95806.66;;;6.36;100.00
33155;BME280;19511;42.682;23.332;2023-02-28T07:54:24;95803.84;;;6.56;100.00
33155;BME280;19511;42.682;23.332;2023-02-28T07:57:02;95790.69;;;6.68;100.00
33155;BME280;19511;42.682;23.332;2023-02-28T07:59:43;95794.53;;;6.64;100.00
33155;BME280;19511;42.682;23.332;2023-02-28T08:02:45;95797.63;;;6.85;100.00
33155;BME280;19511;42.682;23.332;2023-02-28T08:05:30;95789.66;;;7.03;100.00
33155;BME280;19511;42.682;23.332;2023-02-28T08:08:15;95783.34;;;7.03;100.00
33155;BME280;19511;42.682;23.332;2023-02-28T08:11:07;95772.47;;;6.83;100.00
33155;BME280;19511;42.682;23.332;2023-02-28T08:13:33;95790.00;;;7.02;100.00
33155;BME280;19511;42.682;23.332;2023-02-28T08:18:49;95755.75;;;7.26;100.00
33155;BME280;19511;42.682;23.332;2023-02-28T08:21:15;95791.91;;;7.59;100.00
33155;BME280;19511;42.682;23.332;2023-02-28T08:23:41;95754.88;;;7.52;100.00
33155;BME280;19511;42.682;23.332;2023-02-28T08:26:06;95789.03;;;7.78;100.00
33155;BME280;19511;42.682;23.332;2023-02-28T08:28:32;95775.16;;;7.71;100.00
33155;BME280;19511;42.682;23.332;2023-02-28T08:30:58;95781.25;;;7.88;100.00
33155;BME280;19511;42.682;23.332;2023-02-28T08:33:25;95705.50;;;7.33;100.00
33155;BME280;19511;42.682;23.332;2023-02-28T08:36:22;95790.75;;;7.94;100.00
33155;BME280;19511;42.682;23.332;2023-02-28T08:38:58;95794.00;;;8.03;100.00
33155;BME280;19511;42.682;23.332;2023-02-28T08:41:24;95790.06;;;8.04;100.00
33155;BME280;19511;42.682;23.332;2023-02-28T08:43:51;95780.22;;;8.03;100.00
33155;BME280;19511;42.682;23.332;2023-02-28T08:53:02;95790.28;;;8.26;100.00
33155;BME280;19511;42.682;23.332;2023-02-28T08:55:28;95748.41;;;8.09;100.00
33155;BME280;19511;42.682;23.332;2023-02-28T08:57:53;95772.22;;;8.32;100.00
33155;BME280;19511;42.682;23.332;2023-02-28T09:00:25;95683.59;;;7.81;100.00
33155;BME280;19511;42.682;23.332;2023-02-28T09:02:54;95793.78;;;8.64;100.00
33155;BME280;19511;42.682;23.332;2023-02-28T09:05:24;95777.66;;;8.66;100.00
33155;BME280;19511;42.682;23.332;2023-02-28T09:07:52;95782.81;;;8.71;100.00
33155;BME280;19511;42.682;23.332;2023-02-28T09:10:18;95782.91;;;8.86;100.00
33155;BME280;19511;42.682;23.332;2023-02-28T09:12:43;95781.47;;;9.06;100.00
33155;BME280;19511;42.682;23.332;2023-02-28T09:15:17;95766.97;;;9.20;100.00
33155;BME280;19511;42.682;23.332;2023-02-28T09:17:46;95766.25;;;9.34;100.00
33155;BME280;19511;42.682;23.332;2023-02-28T09:20:11;95775.38;;;9.49;100.00
33155;BME280;19511;42.682;23.332;2023-02-28T09:22:37;95771.06;;;9.52;100.00
33155;BME280;19511;42.682;23.332;2023-02-28T09:25:03;95658.75;;;8.82;100.00
33155;BME280;19511;42.682;23.332;2023-02-28T09:27:28;95771.47;;;9.54;100.00
33155;BME280;19511;42.682;23.332;2023-02-28T09:29:56;95777.81;;;9.69;100.00
33155;BME280;19511;42.682;23.332;2023-02-28T09:32:24;95764.38;;;9.53;100.00
33155;BME280;19511;42.682;23.332;2023-02-28T09:34:51;95771.56;;;9.75;100.00
33155;BME280;19511;42.682;23.332;2023-02-28T09:37:16;95735.19;;;9.59;100.00
33155;BME280;19511;42.682;23.332;2023-02-28T09:39:42;95767.66;;;9.98;100.00
33155;BME280;19511;42.682;23.332;2023-02-28T09:42:19;95602.47;;;8.97;100.00
33155;BME280;19511;42.682;23.332;2023-02-28T09:44:47;95771.63;;;10.11;100.00
33155;BME280;19511;42.682;23.332;2023-02-28T09:49:46;95761.75;;;10.14;100.00
33155;BME280;19511;42.682;23.332;2023-02-28T09:52:31;95755.09;;;10.26;100.00
33155;BME280;19511;42.682;23.332;2023-02-28T09:55:31;95768.53;;;10.38;100.00
33155;BME280;19511;42.682;23.332;2023-02-28T09:57:58;95738.88;;;10.17;100.00
33155;BME280;19511;42.682;23.332;2023-02-28T10:00:56;95721.06;;;9.96;100.00
33155;BME280;19511;42.682;23.332;2023-02-28T10:03:39;95756.66;;;10.20;100.00
33155;BME280;19511;42.682;23.332;2023-02-28T10:06:47;95751.94;;;10.38;100.00
33155;BME280;19511;42.682;23.332;2023-02-28T10:09:26;95501.94;;;8.84;100.00
33155;BME280;19511;42.682;23.332;2023-02-28T10:11:54;95759.88;;;10.54;100.00
33155;BME280;19511;42.682;23.332;2023-02-28T10:14:28;95730.59;;;10.35;100.00
33155;BME280;19511;42.682;23.332;2023-02-28T10:17:11;95733.00;;;10.48;100.00
33155;BME280;19511;42.682;23.332;2023-02-28T10:22:29;95638.16;;;10.00;100.00
33155;BME280;19511;42.682;23.332;2023-02-28T10:25:21;95631.88;;;10.03;100.00
33155;BME280;19511;42.682;23.332;2023-02-28T10:27:47;95736.13;;;10.82;100.00
33155;BME280;19511;42.682;23.332;2023-02-28T10:30:15;95671.34;;;10.51;100.00
33155;BME280;19511;42.682;23.332;2023-02-28T10:32:49;95710.03;;;10.80;100.00
33155;BME280;19511;42.682;23.332;2023-02-28T10:37:47;95644.09;;;10.38;100.00
33155;BME280;19511;42.682;23.332;2023-02-28T10:46:03;95649.47;;;11.07;100.00
33155;BME280;19511;42.682;23.332;2023-02-28T10:51:12;95689.78;;;11.19;100.00
33155;BME280;19511;42.682;23.332;2023-02-28T10:56:19;95567.00;;;10.62;100.00
33155;BME280;19511;42.682;23.332;2023-02-28T10:58:59;95676.59;;;11.48;100.00
33155;BME280;19511;42.682;23.332;2023-02-28T11:01:46;95676.19;;;11.46;100.00
33155;BME280;19511;42.682;23.332;2023-02-28T11:04:33;95564.19;;;10.76;100.00
33155;BME280;19511;42.682;23.332;2023-02-28T11:07:36;95661.59;;;11.42;100.00
33155;BME280;19511;42.682;23.332;2023-02-28T11:10:19;95664.28;;;11.53;100.00
33155;BME280;19511;42.682;23.332;2023-02-28T11:12:47;95659.13;;;11.62;100.00
33155;BME280;19511;42.682;23.332;2023-02-28T11:15:35;95666.66;;;11.58;100.00
33155;BME280;19511;42.682;23.332;2023-02-28T11:18:50;95654.84;;;11.47;100.00
33155;BME280;19511;42.682;23.332;2023-02-28T11:21:32;95660.84;;;11.34;100.00
33155;BME280;19511;42.682;23.332;2023-02-28T11:24:14;95651.09;;;10.97;100.00
33155;BME280;19511;42.682;23.332;2023-02-28T11:26:59;95627.75;;;10.98;100.00
33155;BME280;19511;42.682;23.332;2023-02-28T11:29:27;95647.00;;;11.27;100.00
33155;BME280;19511;42.682;23.332;2023-02-28T11:32:07;95568.53;;;10.77;100.00
33155;BME280;19511;42.682;23.332;2023-02-28T11:34:37;95632.06;;;11.06;100.00
33155;BME280;19511;42.682;23.332;2023-02-28T11:37:05;95628.84;;;11.22;100.00
33155;BME280;19511;42.682;23.332;2023-02-28T11:39:34;95647.78;;;11.31;100.00
33155;BME280;19511;42.682;23.332;2023-02-28T11:47:32;95643.34;;;11.52;100.00
33155;BME280;19511;42.682;23.332;2023-02-28T11:52:48;95630.72;;;11.40;100.00
33155;BME280;19511;42.682;23.332;2023-02-28T11:55:39;95626.72;;;11.52;100.00
33155;BME280;19511;42.682;23.332;2023-02-28T12:01:21;95631.34;;;11.69;100.00
33155;BME280;19511;42.682;23.332;2023-02-28T12:04:48;95630.22;;;11.59;100.00
33155;BME280;19511;42.682;23.332;2023-02-28T12:10:24;95629.34;;;11.73;100.00
33155;BME280;19511;42.682;23.332;2023-02-28T12:13:06;95628.13;;;11.78;100.00
33155;BME280;19511;42.682;23.332;2023-02-28T12:26:38;95599.78;;;11.52;100.00
33155;BME280;19511;42.682;23.332;2023-02-28T12:29:24;95627.00;;;11.68;100.00
33155;BME280;19511;42.682;23.332;2023-02-28T12:32:15;95622.19;;;11.80;100.00
33155;BME280;19511;42.682;23.332;2023-02-28T12:34:54;95534.31;;;11.20;100.00
33155;BME280;19511;42.682;23.332;2023-02-28T12:40:52;95620.09;;;11.98;100.00
33155;BME280;19511;42.682;23.332;2023-02-28T12:43:27;95531.50;;;11.27;100.00
33155;BME280;19511;42.682;23.332;2023-02-28T12:46:22;95625.25;;;11.92;100.00
33155;BME280;19511;42.682;23.332;2023-02-28T12:48:56;95521.19;;;11.32;100.00
33155;BME280;19511;42.682;23.332;2023-02-28T12:51:24;95611.00;;;11.94;100.00
33155;BME280;19511;42.682;23.332;2023-02-28T12:56:53;95615.50;;;11.73;100.00
33155;BME280;19511;42.682;23.332;2023-02-28T13:03:19;95616.38;;;11.63;100.00
33155;BME280;19511;42.682;23.332;2023-02-28T13:08:08;95619.50;;;11.65;100.00
33155;BME280;19511;42.682;23.332;2023-02-28T13:10:46;95619.94;;;11.60;100.00
33155;BME280;19511;42.682;23.332;2023-02-28T13:13:37;95610.56;;;11.39;100.00
33155;BME280;19511;42.682;23.332;2023-02-28T13:16:14;95615.25;;;11.50;100.00
33155;BME280;19511;42.682;23.332;2023-02-28T13:18:43;95596.25;;;11.52;100.00
33155;BME280;19511;42.682;23.332;2023-02-28T13:21:51;95614.03;;;11.58;100.00
33155;BME280;19511;42.682;23.332;2023-02-28T13:25:49;95535.09;;;11.17;100.00
33155;BME280;19511;42.682;23.332;2023-02-28T13:34:21;95547.47;;;10.98;100.00
33155;BME280;19511;42.682;23.332;2023-02-28T13:36:27;95594.50;;;11.09;100.00
33155;BME280;19511;42.682;23.332;2023-02-28T13:42:34;95564.81;;;11.09;100.00
33155;BME280;19511;42.682;23.332;2023-02-28T13:45:29;95602.16;;;11.50;100.00
33155;BME280;19511;42.682;23.332;2023-02-28T13:48:33;95600.50;;;11.67;100.00
33155;BME280;19511;42.682;23.332;2023-02-28T13:51:39;95594.84;;;11.78;100.00
33155;BME280;19511;42.682;23.332;2023-02-28T14:06:54;95578.91;;;11.37;100.00
33155;BME280;19511;42.682;23.332;2023-02-28T14:09:55;95578.19;;;11.29;100.00
33155;BME280;19511;42.682;23.332;2023-02-28T14:12:57;95599.16;;;11.26;100.00
33155;BME280;19511;42.682;23.332;2023-02-28T14:15:59;95608.31;;;11.16;100.00
33155;BME280;19511;42.682;23.332;2023-02-28T14:18:33;95576.47;;;10.65;100.00
33155;BME280;19511;42.682;23.332;2023-02-28T14:32:58;95612.03;;;10.73;100.00
33155;BME280;19511;42.682;23.332;2023-02-28T14:41:35;95615.56;;;10.77;100.00
33155;BME280;19511;42.682;23.332;2023-02-28T14:44:39;95607.66;;;10.76;100.00
33155;BME280;19511;42.682;23.332;2023-02-28T14:47:25;95602.59;;;10.49;100.00
33155;BME280;19511;42.682;23.332;2023-02-28T14:50:00;95613.69;;;10.42;100.00
33155;BME280;19511;42.682;23.332;2023-02-28T14:52:36;95610.50;;;10.58;100.00
33155;BME280;19511;42.682;23.332;2023-02-28T14:55:24;95618.41;;;10.49;100.00
33155;BME280;19511;42.682;23.332;2023-02-28T14:58:40;95621.56;;;10.29;100.00
33155;BME280;19511;42.682;23.332;2023-02-28T15:01:10;95512.66;;;9.58;100.00
33155;BME280;19511;42.682;23.332;2023-02-28T15:03:38;95534.34;;;9.81;100.00
33155;BME280;19511;42.682;23.332;2023-02-28T15:06:38;95613.69;;;10.31;100.00
33155;BME280;19511;42.682;23.332;2023-02-28T15:09:28;95618.44;;;10.41;100.00
33155;BME280;19511;42.682;23.332;2023-02-28T15:12:06;95597.88;;;10.24;100.00
33155;BME280;19511;42.682;23.332;2023-02-28T15:14:51;95615.25;;;10.14;100.00
33155;BME280;19511;42.682;23.332;2023-02-28T15:18:00;95515.81;;;9.56;100.00
33155;BME280;19511;42.682;23.332;2023-02-28T15:20:38;95502.00;;;9.42;100.00
33155;BME280;19511;42.682;23.332;2023-02-28T15:23:19;95610.13;;;10.16;100.00
33155;BME280;19511;42.682;23.332;2023-02-28T15:26:00;95624.72;;;10.17;100.00
33155;BME280;19511;42.682;23.332;2023-02-28T15:28:26;95620.03;;;9.95;100.00
33155;BME280;19511;42.682;23.332;2023-02-28T15:30:59;95620.00;;;9.92;100.00
33155;BME280;19511;42.682;23.332;2023-02-28T15:33:32;95634.59;;;9.92;100.00
33155;BME280;19511;42.682;23.332;2023-02-28T15:36:15;95635.00;;;9.94;100.00
33155;BME280;19511;42.682;23.332;2023-02-28T15:38:50;95628.69;;;9.87;100.00
33155;BME280;19511;42.682;23.332;2023-02-28T15:41:29;95633.41;;;9.75;100.00
33155;BME280;19511;42.682;23.332;2023-02-28T15:44:23;95633.00;;;9.73;100.00
33155;BME280;19511;42.682;23.332;2023-02-28T15:47:18;95628.66;;;9.72;100.00
33155;BME280;19511;42.682;23.332;2023-02-28T15:49:50;95618.00;;;9.56;100.00
33155;BME280;19511;42.682;23.332;2023-02-28T15:52:21;95630.25;;;9.59;100.00
33155;BME280;19511;42.682;23.332;2023-02-28T15:54:50;95636.53;;;9.56;100.00